The Snow-Increase Website
SNINCR 4/12


HEAVY SNOW OBSERVATIONS
(Source: National Weather Service)

( Thundersnow, Moderate Snow, Heavy Snow)

The following observation elements have been search for:
SN  +SN  TSSN  +TSSN  -TSSN  SHSN  +SHSN  SNINCR
Lightning remarks (LTG)
Thunder begin and end remarks (TSB and TSE)
METAR KCGI 010653Z AUTO 25005KT 10SM OVC007 02/01 A2960 RMK AO2 RAE33 PRESRR SLP024 P0005 T00220011 SNINCR 4/12

METAR KJEF 010653Z AUTO 28013KT 1/4SM +TSSN FZFG SCT001 SCT009 M07/M07 A2977 RMK AO2 PK WND 36027/0601 LTG DSNT SW-N TSB08E23B45 SLP079 P0004 T10671072

METAR KJLN 010653Z AUTO 31013KT 1/2SM SN FZFG VV003 M08/M10 A2996 RMK AO2 SLP157 P0001 T10781100 $

METAR KAIZ 010655Z AUTO 00000KT 3SM -SN OVC004 M07/M09 A2978 RMK AO1 LTG DSNT N

METAR KMKC 010654Z 33010G25KT 9SM -SN OVC075 M06/M12 A2993 RMK AO2 TSB08E23B45SNB0556 SLP147 P0000 T10611122

METAR KMCI 010653Z 35011G19KT 5SM -SN ovc050 M07/M12 A2995 RMK AO2 TSE35 PK WND 33026/0625 SLP155 T10721122

METAR KVIH 010653Z AUTO 1/2SM SN FZFG VV003 M07/M08 A2966 RMK AO2 SLP059 P0006 T10671078

METAR KSGF 010652Z 1/4SM +SN BR VV002 M08/M11 A2984 RMK AO2 TWR VIS 1/2 SLP122 P0004 T10831111 $

METAR KSZL 010655Z 30013KT 3/16SM +SN VV001 M09/M09 A2990 RMK SLP142 SNINCR 2/10

METAR KADH 301650Z AUTO 35009G19KT 1 1/4SM -SN OVC008 M03/M04 A3003 RMK AO2 LTG DSNT NE THRU SE

METAR KGCM 301652Z AUTO 02010G14KT 3/4SM -SN OVC006 M05/M07 A3011 RMK AO2 LTG DSNT SE AND SW P0006

METAR KGMJ 301655Z AUTO 01009G17KT 4SM -SN BKN011 OVC017 M03/M03 A3006 RMK AO2 LTG DSNT SE AND SW

METAR KSRE 301653Z AUTO 33012G17KT 3/4SM -SN OVC006 M04/M06 A3008 RMK AO2 LTG DSNT E AND SE P0013

METAR KSNL 301654Z AUTO 36012G19KT 2 1/2SM -SN OVC007 M05/M07 A3009 RMK AO2 LTG DSNT E P0002

METAR KTQH 301700Z AUTO 35006KT 1 1/4SM -SN OVC007 M01/M01 A3002 RMK AO2 LTG DSNT SE THRU SW

METAR KEND 301655Z 36020G31KT 1/4SM SN SCT001 OVC003 M08/M08 A3014 RMK PK WND 36035/19 SLP225

METAR KJWG 301316Z AUTO 01023G30KT 2SM -SN BKN009 OVC015 M04/M08 A3024 RMK AO2 LTG DSNT S




RETURN

HOME